createdAt,value
2023-05-19T00:01:19.214Z,10.26
2023-05-19T00:03:57.706Z,10.21
2023-05-19T00:06:34.655Z,10.17
2023-05-19T00:09:08.334Z,10.18
2023-05-19T00:11:38.311Z,10.25
2023-05-19T00:14:09.548Z,10.28
2023-05-19T00:16:38.831Z,10.29
2023-05-19T00:19:10.667Z,10.28
2023-05-19T00:21:39.184Z,10.26
2023-05-19T00:24:07.569Z,10.26
2023-05-19T00:26:36.035Z,10.25
2023-05-19T00:29:06.136Z,10.26
2023-05-19T00:31:34.549Z,10.30
2023-05-19T00:34:03.198Z,10.38
2023-05-19T00:36:31.217Z,10.42
2023-05-19T00:38:59.200Z,10.42
2023-05-19T00:41:27.497Z,10.38
2023-05-19T00:43:56.159Z,10.34
2023-05-19T00:46:24.703Z,10.28
2023-05-19T00:48:53.325Z,10.28
2023-05-19T00:51:22.822Z,10.33
2023-05-19T00:53:52.199Z,10.36
2023-05-19T00:56:22.132Z,10.38
2023-05-19T00:58:52.353Z,10.37
2023-05-19T01:01:21.979Z,10.38
2023-05-19T01:03:51.752Z,10.39
2023-05-19T01:06:21.018Z,10.41
2023-05-19T01:08:51.810Z,10.40
2023-05-19T01:11:20.081Z,10.40
2023-05-19T01:13:48.684Z,10.45
2023-05-19T01:16:33.052Z,10.46
2023-05-19T01:19:32.265Z,10.45
2023-05-19T01:22:31.002Z,10.40
2023-05-19T01:25:13.323Z,10.37
2023-05-19T01:28:08.126Z,10.38
2023-05-19T01:30:36.251Z,10.35
2023-05-19T01:33:07.368Z,10.30
2023-05-19T01:35:38.234Z,10.29
2023-05-19T01:38:09.939Z,10.31
2023-05-19T01:40:41.777Z,10.36
2023-05-19T01:43:16.780Z,10.34
2023-05-19T01:45:45.457Z,10.34
2023-05-19T01:48:14.604Z,10.45
2023-05-19T01:50:42.838Z,10.42
2023-05-19T01:53:11.519Z,10.32
2023-05-19T01:55:48.093Z,10.28
2023-05-19T01:58:47.121Z,10.28
2023-05-19T02:01:23.315Z,10.30
2023-05-19T02:04:03.689Z,10.29
2023-05-19T02:06:53.790Z,10.35
2023-05-19T02:09:43.677Z,10.34
2023-05-19T02:12:43.716Z,10.26
2023-05-19T02:15:15.207Z,10.21
2023-05-19T02:17:50.912Z,10.23
2023-05-19T02:20:19.270Z,10.24
2023-05-19T02:22:48.260Z,10.21
2023-05-19T02:25:16.660Z,10.14
2023-05-19T02:27:45.125Z,10.07
2023-05-19T02:30:13.604Z,10.04
2023-05-19T02:32:41.688Z,10.00
2023-05-19T02:35:11.595Z,9.93
2023-05-19T02:37:41.395Z,9.92
2023-05-19T02:40:09.846Z,9.91
2023-05-19T02:42:38.105Z,9.89
2023-05-19T02:45:07.329Z,9.87
2023-05-19T02:47:37.080Z,9.87
2023-05-19T02:50:06.566Z,9.90
2023-05-19T02:52:35.051Z,9.96
2023-05-19T02:55:03.653Z,10.00
2023-05-19T02:57:32.013Z,10.00
2023-05-19T03:00:00.228Z,9.99
2023-05-19T03:02:28.846Z,9.98
2023-05-19T03:04:57.353Z,10.06
2023-05-19T03:07:25.682Z,10.13
2023-05-19T03:09:54.107Z,10.17
2023-05-19T03:12:22.222Z,10.15
2023-05-19T03:14:50.340Z,10.14
2023-05-19T03:17:18.579Z,10.21
2023-05-19T03:19:46.665Z,10.20
2023-05-19T03:22:14.631Z,10.17
2023-05-19T03:24:42.727Z,10.18
2023-05-19T03:27:12.670Z,10.27
2023-05-19T03:29:40.744Z,10.34
2023-05-19T03:32:08.850Z,10.41
2023-05-19T03:34:37.555Z,10.37
2023-05-19T03:37:05.670Z,10.35
2023-05-19T03:39:34.971Z,10.36
2023-05-19T03:42:03.277Z,10.31
2023-05-19T03:44:31.205Z,10.33
2023-05-19T03:47:00.668Z,10.36
2023-05-19T03:49:49.357Z,10.46
2023-05-19T03:52:36.442Z,10.52
2023-05-19T03:55:20.268Z,10.63
2023-05-19T03:57:49.041Z,10.75
2023-05-19T04:00:18.122Z,10.84
2023-05-19T04:02:46.378Z,10.90
2023-05-19T04:05:15.292Z,10.96
2023-05-19T04:07:43.488Z,11.00
2023-05-19T04:10:12.328Z,11.08
2023-05-19T04:12:40.718Z,11.18
2023-05-19T04:15:11.666Z,11.18
2023-05-19T04:17:40.152Z,11.12
2023-05-19T04:20:08.875Z,11.13
2023-05-19T04:22:37.015Z,11.21
2023-05-19T04:25:06.074Z,11.34
2023-05-19T04:27:36.693Z,11.50
2023-05-19T04:30:06.057Z,11.52
2023-05-19T04:32:34.534Z,11.41
2023-05-19T04:35:03.331Z,11.30
2023-05-19T04:37:31.610Z,11.30
2023-05-19T04:40:00.395Z,11.36
2023-05-19T04:42:30.753Z,11.40
2023-05-19T04:44:59.362Z,11.43
2023-05-19T04:47:28.382Z,11.39
2023-05-19T04:49:56.929Z,11.42
2023-05-19T04:52:25.114Z,11.45
2023-05-19T04:54:53.122Z,11.44
2023-05-19T04:57:21.329Z,11.45
2023-05-19T04:59:49.666Z,11.47
2023-05-19T05:02:17.959Z,11.55
2023-05-19T05:04:46.800Z,11.59
2023-05-19T05:07:15.168Z,11.65
2023-05-19T05:09:43.483Z,11.79
2023-05-19T05:12:12.722Z,11.91
2023-05-19T05:14:41.678Z,12.07
2023-05-19T05:17:11.879Z,12.14
2023-05-19T05:19:40.849Z,12.25
2023-05-19T05:22:09.456Z,12.33
2023-05-19T05:24:40.692Z,12.46
2023-05-19T05:27:10.425Z,12.61
2023-05-19T05:29:39.110Z,12.73
2023-05-19T05:32:08.275Z,12.87
2023-05-19T05:34:38.285Z,12.95
2023-05-19T05:37:06.776Z,13.05
2023-05-19T05:39:35.198Z,13.17
2023-05-19T05:42:03.457Z,13.40
2023-05-19T05:44:31.651Z,13.54
2023-05-19T05:47:00.726Z,13.70
2023-05-19T05:49:29.370Z,13.87
2023-05-19T05:52:05.828Z,14.10
2023-05-19T05:54:36.533Z,14.27
2023-05-19T05:57:06.114Z,14.35
2023-05-19T05:59:34.418Z,14.35
2023-05-19T06:02:02.942Z,14.34
2023-05-19T06:04:31.758Z,14.42
2023-05-19T06:07:01.804Z,14.52
2023-05-19T06:09:33.349Z,14.57
2023-05-19T06:12:01.709Z,14.63
2023-05-19T06:14:32.917Z,14.62
2023-05-19T06:17:21.744Z,14.59
2023-05-19T06:19:49.946Z,14.58
2023-05-19T06:22:18.141Z,14.60
2023-05-19T06:24:46.305Z,14.63
2023-05-19T06:27:14.315Z,14.64
2023-05-19T06:29:42.357Z,14.65
2023-05-19T06:32:11.086Z,14.68
2023-05-19T06:34:40.613Z,14.68
2023-05-19T06:37:09.333Z,14.70
2023-05-19T06:39:38.397Z,14.77
2023-05-19T06:42:06.751Z,14.98
2023-05-19T06:44:52.100Z,15.11
2023-05-19T06:47:20.853Z,15.25
2023-05-19T06:49:55.499Z,15.53
2023-05-19T06:52:25.873Z,15.80
2023-05-19T06:54:54.348Z,16.01
2023-05-19T06:57:22.398Z,16.26
2023-05-19T06:59:51.061Z,16.43
2023-05-19T07:02:19.620Z,16.63
2023-05-19T07:04:47.895Z,16.80
2023-05-19T07:07:17.059Z,16.97
2023-05-19T07:09:45.529Z,17.12
2023-05-19T07:12:14.228Z,17.30
2023-05-19T07:14:42.255Z,17.46
2023-05-19T07:17:11.799Z,17.60
2023-05-19T07:19:41.929Z,17.70
2023-05-19T07:22:09.904Z,17.75
2023-05-19T07:24:37.824Z,17.82
2023-05-19T07:27:06.175Z,17.97
2023-05-19T07:29:34.259Z,18.10
2023-05-19T07:32:02.323Z,18.24
2023-05-19T07:34:30.613Z,18.38
2023-05-19T07:36:58.867Z,18.49
2023-05-19T07:39:29.909Z,18.57
2023-05-19T07:41:59.391Z,18.67
2023-05-19T07:44:27.583Z,18.78
2023-05-19T07:46:55.638Z,18.89
2023-05-19T07:49:23.889Z,18.98
2023-05-19T07:51:51.949Z,19.03
2023-05-19T07:54:21.101Z,19.12
2023-05-19T07:56:49.403Z,19.17
2023-05-19T07:59:17.603Z,19.20
2023-05-19T08:01:45.864Z,19.34
2023-05-19T08:04:14.326Z,19.47
2023-05-19T08:06:44.577Z,19.55
2023-05-19T08:09:13.006Z,19.62
2023-05-19T08:11:41.411Z,19.70
2023-05-19T08:14:09.576Z,19.82
2023-05-19T08:16:38.095Z,19.93
2023-05-19T08:19:07.543Z,19.92
2023-05-19T08:21:36.887Z,19.92
2023-05-19T08:24:05.083Z,20.03
2023-05-19T08:26:35.062Z,20.12
2023-05-19T08:29:04.441Z,20.24
2023-05-19T08:31:32.900Z,20.36
2023-05-19T08:34:01.251Z,20.43
2023-05-19T08:36:30.727Z,20.51
2023-05-19T08:38:59.037Z,20.65
2023-05-19T08:41:27.104Z,20.77
2023-05-19T08:43:55.832Z,20.89
2023-05-19T08:46:26.240Z,20.98
2023-05-19T08:48:59.266Z,21.09
2023-05-19T08:51:30.391Z,21.04
2023-05-19T08:54:12.865Z,21.14
2023-05-19T08:56:43.444Z,21.19
2023-05-19T08:59:16.121Z,21.25
2023-05-19T09:01:48.634Z,21.41
2023-05-19T09:04:17.565Z,21.59
2023-05-19T09:06:46.000Z,21.74
2023-05-19T09:09:14.106Z,21.75
2023-05-19T09:11:46.711Z,21.86
2023-05-19T09:14:14.794Z,21.98
2023-05-19T09:16:45.625Z,22.11
2023-05-19T09:19:15.936Z,22.24
2023-05-19T09:21:45.885Z,22.32
2023-05-19T09:24:14.229Z,22.30
2023-05-19T09:26:43.156Z,22.32
2023-05-19T09:29:16.561Z,22.43
2023-05-19T09:31:49.544Z,22.61
2023-05-19T09:34:18.416Z,22.78
2023-05-19T09:36:50.092Z,22.92
2023-05-19T09:39:19.881Z,23.04
2023-05-19T09:41:53.727Z,23.01
2023-05-19T09:44:29.508Z,23.03
2023-05-19T09:46:58.953Z,23.06
2023-05-19T09:49:30.511Z,23.16
2023-05-19T09:52:00.428Z,23.31
2023-05-19T09:54:29.550Z,23.29
2023-05-19T09:57:03.852Z,23.23
2023-05-19T09:59:33.868Z,23.24
2023-05-19T10:02:03.249Z,23.46
2023-05-19T10:04:31.948Z,23.51
2023-05-19T10:07:05.702Z,23.71
2023-05-19T10:09:36.715Z,23.86
2023-05-19T10:12:05.793Z,24.03
2023-05-19T10:14:33.973Z,24.23
2023-05-19T10:17:02.007Z,24.29
2023-05-19T10:19:30.554Z,24.30
2023-05-19T10:21:58.662Z,24.19
2023-05-19T10:24:26.853Z,24.16
2023-05-19T10:27:05.730Z,24.15
2023-05-19T10:29:38.141Z,24.37
2023-05-19T10:32:17.000Z,24.58
2023-05-19T10:35:04.254Z,24.81
2023-05-19T10:37:45.738Z,24.87
2023-05-19T10:40:29.563Z,24.94
2023-05-19T10:43:32.290Z,25.03
2023-05-19T10:46:00.534Z,25.06
2023-05-19T10:48:33.994Z,25.14
2023-05-19T10:51:02.850Z,25.25
2023-05-19T10:53:35.146Z,25.36
2023-05-19T10:56:04.152Z,25.53
2023-05-19T10:58:44.663Z,25.48
2023-05-19T11:01:18.412Z,25.53
2023-05-19T11:03:53.240Z,25.71
2023-05-19T11:06:38.367Z,25.70
2023-05-19T11:09:15.461Z,25.69
2023-05-19T11:11:49.185Z,25.77
2023-05-19T11:14:25.616Z,25.80
2023-05-19T11:16:57.630Z,25.74
2023-05-19T11:19:31.411Z,25.81
2023-05-19T11:22:10.316Z,25.85
2023-05-19T11:24:46.518Z,25.86
2023-05-19T11:27:27.501Z,26.09
2023-05-19T11:29:57.321Z,26.27
2023-05-19T11:32:31.005Z,26.05
2023-05-19T11:35:00.303Z,25.55
2023-05-19T11:37:33.059Z,25.01
2023-05-19T11:40:08.948Z,24.47
2023-05-19T11:42:37.746Z,23.98
2023-05-19T11:45:07.086Z,23.55
2023-05-19T11:47:45.922Z,23.30
2023-05-19T11:50:20.795Z,23.14
2023-05-19T11:52:50.712Z,23.10
2023-05-19T11:55:23.322Z,23.05
2023-05-19T11:58:05.588Z,23.11
2023-05-19T12:00:40.350Z,23.13
2023-05-19T12:03:10.088Z,23.02
2023-05-19T12:05:44.083Z,23.07
2023-05-19T12:08:12.939Z,23.24
2023-05-19T12:10:41.120Z,23.45
2023-05-19T12:13:10.294Z,23.78
2023-05-19T12:15:39.412Z,24.47
2023-05-19T12:18:08.185Z,25.34
2023-05-19T12:20:37.557Z,26.20
2023-05-19T12:23:06.665Z,26.82
2023-05-19T12:25:35.750Z,27.69
2023-05-19T12:28:04.713Z,28.39
2023-05-19T12:30:34.821Z,29.15
2023-05-19T12:33:03.723Z,29.75
2023-05-19T12:35:36.503Z,30.08
2023-05-19T12:38:06.294Z,29.81
2023-05-19T12:40:36.515Z,29.96
2023-05-19T12:43:05.855Z,30.50
2023-05-19T12:45:38.553Z,30.95
2023-05-19T12:48:12.752Z,31.08
2023-05-19T12:50:41.035Z,31.01
2023-05-19T12:53:12.159Z,30.86
2023-05-19T12:55:43.020Z,30.79
2023-05-19T12:58:12.121Z,30.93
2023-05-19T13:00:45.472Z,31.11
2023-05-19T13:03:20.788Z,31.14
2023-05-19T13:05:51.063Z,31.08
2023-05-19T13:08:21.777Z,30.89
2023-05-19T13:10:50.424Z,30.97
2023-05-19T13:13:18.684Z,31.03
2023-05-19T13:15:50.659Z,31.18
2023-05-19T13:18:18.906Z,31.31
2023-05-19T13:20:50.306Z,31.17
2023-05-19T13:23:19.429Z,31.34
2023-05-19T13:25:47.666Z,31.47
2023-05-19T13:28:15.895Z,31.63
2023-05-19T13:30:44.422Z,31.70
2023-05-19T13:33:12.761Z,31.92
2023-05-19T13:35:40.993Z,31.99
2023-05-19T13:38:10.629Z,31.95
2023-05-19T13:40:40.364Z,32.02
2023-05-19T13:43:09.684Z,32.11
2023-05-19T13:45:38.024Z,31.74
2023-05-19T13:48:07.562Z,31.78
2023-05-19T13:50:36.801Z,31.39
2023-05-19T13:53:05.325Z,30.89
2023-05-19T13:55:33.677Z,30.90
2023-05-19T13:58:01.941Z,30.36
2023-05-19T14:00:31.919Z,29.91
2023-05-19T14:03:00.719Z,29.91
2023-05-19T14:05:29.287Z,30.12
2023-05-19T14:07:58.220Z,30.21
2023-05-19T14:10:26.793Z,30.39
2023-05-19T14:13:28.937Z,30.72
2023-05-19T14:15:43.024Z,30.93
2023-05-19T14:18:11.569Z,30.95
2023-05-19T14:20:39.649Z,30.97
2023-05-19T14:23:07.831Z,31.18
2023-05-19T14:25:35.893Z,31.29
2023-05-19T14:28:04.327Z,31.45
2023-05-19T14:30:32.970Z,31.59
2023-05-19T14:33:01.565Z,31.20
2023-05-19T14:35:29.511Z,31.15
2023-05-19T14:37:57.430Z,31.13
2023-05-19T14:40:25.442Z,31.35
2023-05-19T14:42:53.551Z,30.92
2023-05-19T14:45:21.755Z,30.90
2023-05-19T14:47:50.047Z,30.61
2023-05-19T14:50:18.375Z,30.32
2023-05-19T14:52:46.446Z,29.99
2023-05-19T14:55:14.544Z,29.67
2023-05-19T14:57:42.969Z,28.91
2023-05-19T15:00:12.214Z,28.85
2023-05-19T15:02:40.809Z,29.28
2023-05-19T15:05:09.514Z,29.70
2023-05-19T15:07:37.927Z,29.82
2023-05-19T15:10:06.613Z,29.72
2023-05-19T15:12:34.887Z,29.54
2023-05-19T15:15:03.305Z,28.75
2023-05-19T15:17:31.357Z,27.84
2023-05-19T15:19:59.572Z,26.86
2023-05-19T15:22:27.894Z,25.93
2023-05-19T15:24:56.185Z,25.00
2023-05-19T15:27:24.270Z,24.21
2023-05-19T15:29:52.261Z,23.66
2023-05-19T15:32:20.401Z,23.23
2023-05-19T15:34:48.542Z,22.86
2023-05-19T15:37:16.818Z,22.42
2023-05-19T15:39:45.212Z,22.09
2023-05-19T15:42:13.483Z,21.74
2023-05-19T15:44:41.649Z,21.49
2023-05-19T15:47:09.835Z,21.27
2023-05-19T15:49:37.802Z,21.02
2023-05-19T15:52:06.510Z,20.81
2023-05-19T15:54:34.729Z,20.58
2023-05-19T15:57:02.727Z,20.31
2023-05-19T15:59:30.929Z,20.07
2023-05-19T16:01:59.309Z,19.77
2023-05-19T16:04:27.660Z,19.43
2023-05-19T16:06:56.442Z,19.13
2023-05-19T16:09:24.416Z,18.93
2023-05-19T16:11:52.792Z,18.75
2023-05-19T16:14:20.964Z,18.57
2023-05-19T16:16:49.313Z,18.28
2023-05-19T16:19:17.653Z,18.07
2023-05-19T16:21:45.919Z,17.96
2023-05-19T16:24:14.189Z,17.88
2023-05-19T16:26:42.196Z,17.87
2023-05-19T16:29:10.430Z,17.78
2023-05-19T16:31:38.539Z,17.73
2023-05-19T16:34:06.873Z,17.67
2023-05-19T16:36:34.916Z,17.64
2023-05-19T16:39:03.186Z,17.58
2023-05-19T16:41:31.384Z,17.50
2023-05-19T16:43:59.672Z,17.43
2023-05-19T16:46:29.174Z,17.39
2023-05-19T16:48:59.120Z,17.39
2023-05-19T16:51:27.164Z,17.40
2023-05-19T16:53:55.223Z,17.34
2023-05-19T16:56:23.258Z,17.24
2023-05-19T16:58:52.916Z,17.12
2023-05-19T17:01:21.883Z,17.09
2023-05-19T17:03:49.900Z,17.11
2023-05-19T17:06:18.079Z,17.10
2023-05-19T17:08:46.252Z,17.04
2023-05-19T17:11:14.371Z,17.01
2023-05-19T17:13:43.909Z,16.97
2023-05-19T17:16:12.088Z,16.91
2023-05-19T17:18:40.808Z,16.89
2023-05-19T17:21:09.082Z,16.80
2023-05-19T17:23:38.123Z,16.70
2023-05-19T17:26:06.295Z,16.67
2023-05-19T17:28:34.336Z,16.63
2023-05-19T17:31:10.375Z,16.63
2023-05-19T17:33:38.825Z,16.53
2023-05-19T17:36:09.628Z,16.47
2023-05-19T17:38:41.983Z,16.50
2023-05-19T17:41:10.357Z,16.55
2023-05-19T17:43:40.808Z,16.55
2023-05-19T17:46:09.825Z,16.56
2023-05-19T17:48:38.080Z,16.49
2023-05-19T17:51:09.389Z,16.45
2023-05-19T17:53:37.962Z,16.37
2023-05-19T17:56:08.888Z,16.36
2023-05-19T17:58:37.334Z,16.32
2023-05-19T18:01:06.010Z,16.30
2023-05-19T18:03:34.776Z,16.25
2023-05-19T18:06:03.008Z,16.17
2023-05-19T18:08:32.460Z,16.08
2023-05-19T18:11:01.125Z,15.98
2023-05-19T18:13:29.537Z,15.93
2023-05-19T18:16:00.007Z,15.90
2023-05-19T18:18:28.146Z,15.83
2023-05-19T18:20:56.304Z,15.77
2023-05-19T18:23:24.262Z,15.74
2023-05-19T18:25:53.463Z,15.77
2023-05-19T18:28:21.773Z,15.78
2023-05-19T18:31:17.423Z,15.71
2023-05-19T18:33:47.261Z,15.61
2023-05-19T18:36:16.724Z,15.52
2023-05-19T18:38:45.199Z,15.46
2023-05-19T18:41:14.791Z,15.40
2023-05-19T18:43:43.084Z,15.30
2023-05-19T18:46:11.524Z,15.22
2023-05-19T18:48:39.810Z,15.09
2023-05-19T18:51:07.884Z,15.02
2023-05-19T18:53:36.969Z,14.97
2023-05-19T18:56:05.264Z,14.92
2023-05-19T18:58:33.557Z,14.86
2023-05-19T19:01:01.813Z,14.77
2023-05-19T19:03:30.098Z,14.66
2023-05-19T19:05:59.460Z,14.56
2023-05-19T19:08:27.788Z,14.50
2023-05-19T19:11:00.311Z,14.43
2023-05-19T19:13:28.458Z,14.38
2023-05-19T19:15:56.656Z,14.34
2023-05-19T19:18:26.188Z,14.35
2023-05-19T19:20:56.868Z,14.28
2023-05-19T19:23:25.175Z,14.25
2023-05-19T19:25:54.024Z,14.28
2023-05-19T19:28:22.857Z,14.31
2023-05-19T19:30:51.268Z,14.32
2023-05-19T19:33:19.463Z,14.35
2023-05-19T19:35:47.480Z,14.29
2023-05-19T19:38:15.695Z,14.16
2023-05-19T19:40:43.960Z,14.01
2023-05-19T19:43:11.904Z,13.86
2023-05-19T19:45:39.975Z,13.73
2023-05-19T19:48:08.349Z,13.72
2023-05-19T19:50:36.571Z,13.66
2023-05-19T19:53:04.840Z,13.65
2023-05-19T19:55:32.898Z,13.54
2023-05-19T19:58:01.031Z,13.46
2023-05-19T20:00:29.024Z,13.45
2023-05-19T20:03:05.141Z,13.45
2023-05-19T20:05:38.338Z,13.42
2023-05-19T20:08:06.519Z,13.32
2023-05-19T20:10:34.936Z,13.27
2023-05-19T20:13:03.319Z,13.26
2023-05-19T20:15:31.900Z,13.21
2023-05-19T20:18:00.039Z,13.12
2023-05-19T20:20:28.340Z,13.12
2023-05-19T20:22:56.355Z,13.07
2023-05-19T20:25:24.675Z,13.06
2023-05-19T20:27:53.151Z,13.05
2023-05-19T20:30:21.410Z,13.01
2023-05-19T20:32:49.496Z,13.01
2023-05-19T20:35:18.308Z,12.98
2023-05-19T20:37:48.037Z,12.87
2023-05-19T20:40:16.071Z,12.87
2023-05-19T20:42:44.876Z,12.90
2023-05-19T20:45:12.961Z,12.88
2023-05-19T20:47:41.069Z,12.81
2023-05-19T20:50:09.470Z,12.73
2023-05-19T20:52:37.992Z,12.62
2023-05-19T20:55:06.474Z,12.60
2023-05-19T20:57:34.862Z,12.67
2023-05-19T21:00:03.892Z,12.67
2023-05-19T21:02:32.150Z,12.66
2023-05-19T21:05:00.714Z,12.63
2023-05-19T21:07:29.183Z,12.65
2023-05-19T21:09:57.827Z,12.65
2023-05-19T21:12:28.733Z,12.71
2023-05-19T21:14:56.884Z,12.72
2023-05-19T21:17:25.203Z,12.82
2023-05-19T21:19:58.000Z,12.85
2023-05-19T21:22:26.950Z,12.83
2023-05-19T21:24:55.230Z,12.74
2023-05-19T21:27:23.468Z,12.64
2023-05-19T21:29:53.618Z,12.56
2023-05-19T21:32:22.105Z,12.50
2023-05-19T21:34:50.726Z,12.46
2023-05-19T21:37:19.950Z,12.44
2023-05-19T21:39:48.829Z,12.41
2023-05-19T21:42:16.869Z,12.37
2023-05-19T21:44:44.944Z,12.36
2023-05-19T21:47:13.250Z,12.30
2023-05-19T21:49:41.356Z,12.23
2023-05-19T21:52:09.936Z,12.18
2023-05-19T21:54:38.192Z,12.13
2023-05-19T21:57:06.876Z,12.08
2023-05-19T21:59:34.936Z,12.03
2023-05-19T22:02:03.062Z,12.02
2023-05-19T22:04:31.637Z,12.03
2023-05-19T22:06:59.929Z,11.98
2023-05-19T22:09:28.714Z,11.94
2023-05-19T22:11:57.043Z,11.94
2023-05-19T22:14:25.539Z,11.89
2023-05-19T22:16:53.611Z,11.84
2023-05-19T22:19:22.220Z,11.82
2023-05-19T22:21:53.740Z,11.80
2023-05-19T22:24:29.895Z,11.80
2023-05-19T22:26:58.278Z,11.77
2023-05-19T22:29:26.246Z,11.71
2023-05-19T22:31:54.366Z,11.63
2023-05-19T22:34:22.749Z,11.58
2023-05-19T22:36:50.986Z,11.60
2023-05-19T22:39:19.086Z,11.67
2023-05-19T22:41:47.183Z,11.64
2023-05-19T22:44:16.481Z,11.57
2023-05-19T22:46:44.809Z,11.50
2023-05-19T22:49:13.082Z,11.46
2023-05-19T22:51:41.164Z,11.45
2023-05-19T22:54:10.653Z,11.43
2023-05-19T22:56:38.641Z,11.37
2023-05-19T22:59:06.886Z,11.28
2023-05-19T23:01:35.741Z,11.20
2023-05-19T23:04:04.220Z,11.22
2023-05-19T23:06:32.411Z,11.27
2023-05-19T23:09:01.876Z,11.21
2023-05-19T23:11:30.349Z,11.18
2023-05-19T23:13:58.389Z,11.12
2023-05-19T23:16:26.563Z,11.01
2023-05-19T23:18:54.688Z,10.97
2023-05-19T23:21:22.777Z,10.93
2023-05-19T23:23:50.948Z,10.80
2023-05-19T23:26:19.146Z,10.73
2023-05-19T23:28:47.252Z,10.68
2023-05-19T23:31:15.677Z,10.60
2023-05-19T23:33:43.845Z,10.55
2023-05-19T23:36:12.026Z,10.50
2023-05-19T23:38:40.527Z,10.48
2023-05-19T23:41:08.694Z,10.41
2023-05-19T23:43:38.005Z,10.38
2023-05-19T23:46:06.342Z,10.31
2023-05-19T23:48:35.730Z,10.26
2023-05-19T23:51:04.167Z,10.24
2023-05-19T23:53:32.155Z,10.28
2023-05-19T23:56:00.439Z,10.28
2023-05-19T23:58:28.618Z,10.25
